Time;durP1;ratioP1;P1;durP2;ratioP2;P2;SDS_P1;SDS_P2;PMS_P1;PMS_P2;Temp;Humidity;BMP_temperature;BMP_pressure;BME280_temperature;BME280_humidity;BME280_pressure;Samples;Min_cycle;Max_cycle;Signal;HPM_P1;HPM_P2
2022/01/15 00:00:40;;;;;;;33.95;19.38;;;;;;;;;;10366957;28;20026;-45
2022/01/15 00:05:40;;;;;;;37.58;20.05;;;;;;;;;;10368524;28;20025;-51
2022/01/15 00:10:41;;;;;;;32.67;19.25;;;;;;;;;;10364508;28;20488;-45
2022/01/15 00:15:48;;;;;;;37.20;19.05;;;;;;;;;;10365930;28;20046;-49
2022/01/15 00:20:48;;;;;;;28.65;17.05;;;;;;;;;;10362682;28;20053;-51
2022/01/15 00:25:49;;;;;;;32.00;17.30;;;;;;;;;;10364635;28;20513;-50
2022/01/15 00:30:49;;;;;;;31.60;17.73;;;;;;;;;;10366156;28;20456;-46
2022/01/15 00:35:50;;;;;;;33.50;17.67;;;;;;;;;;10367007;28;20113;-49
2022/01/15 00:40:50;;;;;;;31.95;18.50;;;;;;;;;;10365709;28;20030;-46
2022/01/15 00:45:51;;;;;;;37.60;21.08;;;;;;;;;;10362286;28;20022;-49
2022/01/15 00:50:51;;;;;;;35.80;21.25;;;;;;;;;;10367045;28;20026;-48
2022/01/15 00:55:51;;;;;;;39.75;20.75;;;;;;;;;;10364115;28;20030;-53
2022/01/15 01:00:52;;;;;;;34.17;21.50;;;;;;;;;;10367136;28;20253;-49
2022/01/15 01:05:52;;;;;;;35.40;22.10;;;;;;;;;;10371694;28;20582;-51
2022/01/15 01:10:58;;;;;;;41.63;22.90;;;;;;;;;;10373858;28;20461;-51
2022/01/15 01:21:57;;;;;;;34.25;21.67;;;;;;;;;;10374638;28;20473;-52
2022/01/15 01:27:03;;;;;;;39.05;22.85;;;;;;;;;;10373781;28;20116;-51
2022/01/15 01:37:24;;;;;;;37.38;23.35;;;;;;;;;;10373634;28;20029;-51
2022/01/15 01:42:38;;;;;;;36.63;22.85;;;;;;;;;;10373772;28;20033;-51
2022/01/15 01:47:42;;;;;;;35.08;22.98;;;;;;;;;;10373022;28;20022;-56
2022/01/15 01:52:45;;;;;;;36.28;23.48;;;;;;;;;;10372927;28;20032;-51
2022/01/15 01:57:46;;;;;;;36.17;22.42;;;;;;;;;;10369290;28;20018;-46
2022/01/15 02:02:48;;;;;;;41.75;24.05;;;;;;;;;;10369367;28;20029;-62
2022/01/15 02:07:48;;;;;;;37.15;22.17;;;;;;;;;;10372921;28;20022;-62
2022/01/15 02:12:50;;;;;;;35.22;21.90;;;;;;;;;;10371797;28;20037;-62
2022/01/15 02:17:52;;;;;;;35.30;22.40;;;;;;;;;;10370549;28;20026;-63
2022/01/15 02:28:18;;;;;;;37.33;23.02;;;;;;;;;;10371501;28;20034;-63
2022/01/15 02:33:19;;;;;;;37.50;22.65;;;;;;;;;;10371076;28;20033;-64
2022/01/15 02:38:20;;;;;;;41.75;22.88;;;;;;;;;;10370562;28;20026;-60
2022/01/15 02:43:28;;;;;;;38.75;22.90;;;;;;;;;;10370967;28;20109;-63
2022/01/15 02:48:28;;;;;;;37.23;22.53;;;;;;;;;;10370155;28;20284;-64
2022/01/15 02:53:28;;;;;;;33.67;22.43;;;;;;;;;;10369458;28;20261;-62
2022/01/15 02:58:29;;;;;;;33.43;22.63;;;;;;;;;;10369793;28;20459;-64
2022/01/15 03:03:29;;;;;;;36.85;22.27;;;;;;;;;;10366588;28;20109;-64
2022/01/15 03:08:32;;;;;;;34.60;22.37;;;;;;;;;;10365880;28;20026;-60
2022/01/15 03:13:33;;;;;;;40.72;23.35;;;;;;;;;;10369026;28;20677;-64
2022/01/15 03:18:34;;;;;;;38.85;21.67;;;;;;;;;;10369081;28;20037;-64
2022/01/15 03:23:34;;;;;;;34.40;22.27;;;;;;;;;;10369364;28;20033;-63
2022/01/15 03:28:35;;;;;;;32.85;22.45;;;;;;;;;;10369600;28;20030;-64
2022/01/15 03:33:36;;;;;;;33.30;22.23;;;;;;;;;;10369635;28;20045;-51
2022/01/15 03:38:36;;;;;;;32.93;22.57;;;;;;;;;;10368946;28;20030;-47
2022/01/15 03:43:36;;;;;;;37.67;22.57;;;;;;;;;;10368819;28;20471;-47
2022/01/15 03:48:37;;;;;;;34.37;23.20;;;;;;;;;;10368322;28;20065;-46
2022/01/15 03:53:37;;;;;;;37.27;21.57;;;;;;;;;;10368940;28;20109;-46
2022/01/15 03:58:37;;;;;;;34.17;22.47;;;;;;;;;;10368429;28;20431;-48
2022/01/15 04:03:38;;;;;;;33.43;22.27;;;;;;;;;;10368208;28;20496;-60
2022/01/15 04:08:39;;;;;;;34.58;22.60;;;;;;;;;;10365465;28;20381;-64
2022/01/15 04:13:39;;;;;;;36.17;23.13;;;;;;;;;;10365021;28;20073;-55
2022/01/15 04:18:41;;;;;;;36.27;23.17;;;;;;;;;;10367906;28;20455;-50
2022/01/15 04:23:41;;;;;;;35.63;22.38;;;;;;;;;;10367741;28;20052;-51
2022/01/15 04:28:42;;;;;;;32.63;21.73;;;;;;;;;;10368258;28;20022;-49
2022/01/15 04:33:42;;;;;;;38.53;22.33;;;;;;;;;;10367701;28;20026;-50
2022/01/15 04:38:44;;;;;;;34.15;22.33;;;;;;;;;;10368411;28;20757;-55
2022/01/15 04:43:45;;;;;;;37.40;22.80;;;;;;;;;;10375329;28;20528;-51
2022/01/15 04:48:45;;;;;;;35.33;21.73;;;;;;;;;;10375430;28;20040;-49
2022/01/15 04:53:45;;;;;;;35.30;22.67;;;;;;;;;;10375691;28;20534;-53
2022/01/15 04:58:46;;;;;;;32.73;21.83;;;;;;;;;;10374932;28;20454;-50
2022/01/15 05:03:46;;;;;;;32.53;22.08;;;;;;;;;;10375257;28;20455;-55
2022/01/15 05:08:51;;;;;;;33.77;20.33;;;;;;;;;;10374532;28;20040;-52
2022/01/15 05:13:51;;;;;;;31.52;21.38;;;;;;;;;;10370991;28;20471;-50
2022/01/15 05:18:52;;;;;;;34.90;21.95;;;;;;;;;;10373626;28;20032;-51
2022/01/15 05:23:52;;;;;;;30.63;21.23;;;;;;;;;;10369314;28;20033;-48
2022/01/15 05:28:52;;;;;;;29.47;21.60;;;;;;;;;;10373660;28;20467;-51
2022/01/15 05:33:53;;;;;;;34.03;21.63;;;;;;;;;;10373942;28;20152;-55
2022/01/15 05:38:53;;;;;;;34.70;22.20;;;;;;;;;;10373363;28;20120;-48
2022/01/15 05:43:54;;;;;;;31.73;21.17;;;;;;;;;;10372527;28;20088;-51
2022/01/15 05:48:54;;;;;;;33.33;21.98;;;;;;;;;;10372813;28;20502;-52
2022/01/15 05:53:59;;;;;;;29.55;20.35;;;;;;;;;;10371159;28;20536;-50
2022/01/15 05:58:59;;;;;;;32.47;20.77;;;;;;;;;;10372970;28;20041;-48
2022/01/15 06:04:00;;;;;;;34.17;20.45;;;;;;;;;;10371789;28;20022;-53
2022/01/15 06:09:02;;;;;;;29.08;19.30;;;;;;;;;;10372224;28;20037;-48
2022/01/15 06:14:03;;;;;;;28.30;19.23;;;;;;;;;;10371225;28;20128;-46
2022/01/15 06:19:03;;;;;;;32.83;19.87;;;;;;;;;;10371444;28;20552;-52
2022/01/15 06:24:04;;;;;;;30.60;19.93;;;;;;;;;;10367465;28;20444;-46
2022/01/15 06:29:04;;;;;;;27.45;19.08;;;;;;;;;;10367834;28;20084;-46
2022/01/15 06:34:05;;;;;;;25.85;18.00;;;;;;;;;;10371503;28;20053;-56
2022/01/15 06:39:05;;;;;;;24.70;18.55;;;;;;;;;;10370351;28;20036;-48
2022/01/15 06:44:06;;;;;;;27.52;18.20;;;;;;;;;;10370902;28;20037;-51
2022/01/15 06:49:06;;;;;;;27.70;17.55;;;;;;;;;;10369462;28;20140;-51
2022/01/15 06:54:06;;;;;;;25.80;17.77;;;;;;;;;;10369974;28;20458;-53
2022/01/15 06:59:07;;;;;;;30.02;18.38;;;;;;;;;;10369539;28;20475;-49
2022/01/15 07:04:07;;;;;;;24.55;17.48;;;;;;;;;;10369202;28;20105;-46
2022/01/15 07:09:08;;;;;;;26.97;18.37;;;;;;;;;;10369487;28;20065;-46
2022/01/15 07:14:08;;;;;;;23.73;16.70;;;;;;;;;;10369294;28;20463;-51
2022/01/15 07:19:08;;;;;;;23.13;15.80;;;;;;;;;;10369868;28;20973;-49
2022/01/15 07:24:11;;;;;;;23.67;16.20;;;;;;;;;;10368968;28;20534;-50
2022/01/15 07:29:15;;;;;;;29.73;16.63;;;;;;;;;;10362592;28;20099;-55
2022/01/15 07:34:16;;;;;;;24.63;17.40;;;;;;;;;;10368973;28;20060;-46
2022/01/15 07:39:16;;;;;;;23.43;15.40;;;;;;;;;;10368609;28;20041;-49
2022/01/15 07:44:16;;;;;;;22.53;15.23;;;;;;;;;;10367217;28;20831;-48
2022/01/15 07:49:17;;;;;;;23.58;15.02;;;;;;;;;;10368040;28;20455;-63
2022/01/15 07:54:17;;;;;;;24.70;15.20;;;;;;;;;;10367721;28;20029;-58
2022/01/15 07:59:18;;;;;;;29.30;15.48;;;;;;;;;;10367676;28;20022;-48
2022/01/15 08:04:18;;;;;;;24.60;15.73;;;;;;;;;;10368091;28;20037;-46
2022/01/15 08:09:18;;;;;;;34.93;16.43;;;;;;;;;;10367645;28;20858;-46
2022/01/15 08:14:19;;;;;;;32.40;15.80;;;;;;;;;;10366792;28;20470;-50
2022/01/15 08:19:19;;;;;;;31.10;15.60;;;;;;;;;;10367427;28;20574;-50
2022/01/15 08:24:19;;;;;;;37.90;21.03;;;;;;;;;;10367129;28;20458;-44
2022/01/15 08:29:20;;;;;;;27.20;16.17;;;;;;;;;;10363739;28;20475;-50
2022/01/15 08:34:20;;;;;;;29.77;15.00;;;;;;;;;;10366726;28;20452;-44
2022/01/15 08:39:21;;;;;;;33.50;15.17;;;;;;;;;;10361941;28;20033;-49
2022/01/15 08:44:23;;;;;;;32.10;14.70;;;;;;;;;;10366085;28;20034;-52
2022/01/15 08:49:24;;;;;;;32.28;13.02;;;;;;;;;;10365508;28;20507;-53
2022/01/15 08:54:24;;;;;;;45.38;13.48;;;;;;;;;;10365413;28;20061;-49
2022/01/15 08:59:27;;;;;;;44.93;15.03;;;;;;;;;;10366195;28;20022;-48
2022/01/15 09:04:27;;;;;;;30.70;13.80;;;;;;;;;;10365847;28;21031;-51
2022/01/15 09:09:28;;;;;;;48.17;13.80;;;;;;;;;;10366323;28;20095;-52
2022/01/15 09:14:29;;;;;;;34.60;13.10;;;;;;;;;;10364204;28;20061;-49
2022/01/15 09:19:29;;;;;;;28.30;13.05;;;;;;;;;;10366428;28;20032;-47
2022/01/15 09:24:29;;;;;;;28.87;12.27;;;;;;;;;;10366020;28;20494;-47
2022/01/15 09:34:49;;;;;;;37.53;12.18;;;;;;;;;;10373032;28;20120;-47
2022/01/15 09:39:50;;;;;;;29.40;12.73;;;;;;;;;;10369357;28;20109;-50
2022/01/15 09:44:53;;;;;;;25.40;12.30;;;;;;;;;;10367452;28;20026;-50
2022/01/15 09:49:53;;;;;;;35.58;12.48;;;;;;;;;;10371311;28;20435;-52
2022/01/15 09:54:54;;;;;;;24.33;12.00;;;;;;;;;;10353052;28;20026;-55
2022/01/15 09:59:54;;;;;;;27.40;12.07;;;;;;;;;;10368840;28;20065;-59
2022/01/15 10:04:54;;;;;;;37.30;12.07;;;;;;;;;;10369908;28;20445;-58
2022/01/15 10:09:56;;;;;;;31.50;11.90;;;;;;;;;;10370078;28;20441;-53
2022/01/15 10:15:04;;;;;;;20.98;11.85;;;;;;;;;;10369687;28;20042;-56
2022/01/15 10:20:06;;;;;;;22.47;11.63;;;;;;;;;;10370151;28;20531;-51
2022/01/15 10:25:14;;;;;;;22.42;12.00;;;;;;;;;;10370097;28;20026;-54
2022/01/15 10:30:18;;;;;;;22.05;10.65;;;;;;;;;;10370816;28;20034;-51
2022/01/15 10:35:18;;;;;;;20.83;12.18;;;;;;;;;;10369866;28;20034;-47
2022/01/15 10:40:37;;;;;;;24.13;11.05;;;;;;;;;;10368840;28;20021;-48
2022/01/15 10:45:52;;;;;;;17.42;10.82;;;;;;;;;;10362833;28;20072;-51
2022/01/15 10:50:58;;;;;;;25.23;11.50;;;;;;;;;;10368861;28;20050;-48
2022/01/15 10:55:59;;;;;;;18.05;10.52;;;;;;;;;;10369632;28;20057;-50
2022/01/15 11:00:59;;;;;;;18.23;10.35;;;;;;;;;;10368643;28;20057;-53
2022/01/15 11:06:01;;;;;;;17.95;10.15;;;;;;;;;;10367490;28;20517;-55
2022/01/15 11:11:06;;;;;;;24.77;9.93;;;;;;;;;;10368285;28;20037;-47
2022/01/15 11:16:32;;;;;;;24.52;10.00;;;;;;;;;;10366985;28;20510;-50
2022/01/15 11:21:33;;;;;;;15.52;9.98;;;;;;;;;;10366527;28;20050;-49
2022/01/15 11:26:36;;;;;;;13.38;9.38;;;;;;;;;;10366241;28;20029;-51
2022/01/15 11:31:37;;;;;;;15.50;9.38;;;;;;;;;;10368285;28;20034;-52
2022/01/15 11:36:42;;;;;;;16.48;9.00;;;;;;;;;;10367728;28;20045;-50
2022/01/15 11:41:53;;;;;;;16.83;9.32;;;;;;;;;;10367458;28;20026;-51
2022/01/15 11:46:55;;;;;;;13.20;8.23;;;;;;;;;;10360685;28;20038;-51
2022/01/15 11:51:57;;;;;;;12.48;7.72;;;;;;;;;;10366188;28;20474;-51
2022/01/15 11:57:00;;;;;;;15.38;8.57;;;;;;;;;;10367001;28;20026;-51
2022/01/15 12:02:04;;;;;;;13.27;8.43;;;;;;;;;;10367346;28;20037;-47
2022/01/15 12:07:05;;;;;;;23.80;9.68;;;;;;;;;;10368105;28;20044;-49
2022/01/15 12:12:18;;;;;;;15.00;8.35;;;;;;;;;;10366923;28;20042;-52
2022/01/15 12:17:31;;;;;;;14.52;8.10;;;;;;;;;;10367687;28;20119;-52
2022/01/15 12:22:39;;;;;;;13.00;8.07;;;;;;;;;;10368684;28;20037;-49
2022/01/15 12:27:41;;;;;;;13.32;8.57;;;;;;;;;;10368184;28;20030;-52
2022/01/15 12:32:44;;;;;;;17.35;7.55;;;;;;;;;;10367361;28;20038;-47
2022/01/15 12:38:05;;;;;;;17.95;7.80;;;;;;;;;;10367801;28;20026;-52
2022/01/15 12:43:16;;;;;;;22.73;8.52;;;;;;;;;;10366361;28;20026;-53
2022/01/15 12:48:22;;;;;;;15.10;8.07;;;;;;;;;;10363782;28;20362;-51
2022/01/15 12:53:37;;;;;;;18.23;7.75;;;;;;;;;;10364432;28;20303;-51
2022/01/15 12:58:39;;;;;;;14.70;7.80;;;;;;;;;;10367099;28;20034;-51
2022/01/15 13:03:40;;;;;;;15.75;7.78;;;;;;;;;;10371343;28;20026;-50
2022/01/15 13:08:43;;;;;;;20.08;8.75;;;;;;;;;;10373082;28;20026;-49
2022/01/15 13:13:46;;;;;;;21.63;8.10;;;;;;;;;;10373204;28;20142;-47
2022/01/15 13:18:50;;;;;;;11.27;7.15;;;;;;;;;;10373012;28;20029;-46
2022/01/15 13:24:01;;;;;;;11.93;7.65;;;;;;;;;;10374348;28;20054;-47
2022/01/15 13:29:04;;;;;;;14.00;7.15;;;;;;;;;;10373313;28;20042;-46
2022/01/15 13:34:10;;;;;;;12.73;7.22;;;;;;;;;;10371499;28;20054;-45
2022/01/15 13:39:12;;;;;;;16.90;7.25;;;;;;;;;;10372789;28;20153;-45
2022/01/15 13:44:14;;;;;;;11.90;6.63;;;;;;;;;;10371125;28;20022;-44
2022/01/15 13:49:19;;;;;;;14.43;7.25;;;;;;;;;;10369698;28;20040;-47
2022/01/15 13:54:19;;;;;;;15.23;7.28;;;;;;;;;;10364971;28;20021;-45
2022/01/15 13:59:22;;;;;;;13.87;6.93;;;;;;;;;;10371889;28;20410;-46
2022/01/15 14:04:25;;;;;;;11.07;7.45;;;;;;;;;;10371762;28;20538;-45
2022/01/15 14:09:28;;;;;;;11.27;6.35;;;;;;;;;;10370007;28;20425;-46
2022/01/15 14:14:30;;;;;;;18.67;6.72;;;;;;;;;;10369089;28;20054;-45
2022/01/15 14:25:12;;;;;;;9.43;6.35;;;;;;;;;;10370448;28;20053;-49
2022/01/15 14:30:13;;;;;;;12.45;6.70;;;;;;;;;;10370341;28;20065;-45
2022/01/15 14:35:14;;;;;;;13.93;6.15;;;;;;;;;;10369204;28;20054;-49
2022/01/15 14:40:16;;;;;;;10.53;6.50;;;;;;;;;;10370120;28;20466;-46
2022/01/15 14:45:17;;;;;;;14.50;6.78;;;;;;;;;;10369951;28;20630;-46
2022/01/15 14:50:19;;;;;;;12.63;6.03;;;;;;;;;;10370222;28;20033;-50
2022/01/15 14:55:19;;;;;;;9.45;5.85;;;;;;;;;;10366411;28;20030;-53
2022/01/15 15:00:20;;;;;;;8.50;5.55;;;;;;;;;;10369218;28;20083;-48
2022/01/15 15:05:20;;;;;;;12.47;6.23;;;;;;;;;;10366305;28;20018;-49
2022/01/15 15:10:21;;;;;;;12.23;5.50;;;;;;;;;;10368808;28;21010;-47
2022/01/15 15:15:21;;;;;;;11.30;6.05;;;;;;;;;;10368880;28;20046;-47
2022/01/15 15:20:22;;;;;;;10.88;6.00;;;;;;;;;;10369236;28;20026;-46
2022/01/15 15:25:22;;;;;;;7.82;5.38;;;;;;;;;;10368544;28;20062;-45
2022/01/15 15:30:23;;;;;;;10.97;5.40;;;;;;;;;;10368903;28;20030;-48
2022/01/15 15:35:23;;;;;;;8.20;5.32;;;;;;;;;;10369069;28;20455;-44
2022/01/15 15:40:23;;;;;;;10.53;5.50;;;;;;;;;;10369173;28;20061;-50
2022/01/15 15:45:24;;;;;;;11.65;6.35;;;;;;;;;;10367641;28;20819;-43
2022/01/15 15:50:26;;;;;;;9.73;5.40;;;;;;;;;;10368883;28;20100;-50
2022/01/15 15:55:27;;;;;;;7.93;5.43;;;;;;;;;;10367966;28;20456;-45
2022/01/15 16:00:27;;;;;;;8.88;5.97;;;;;;;;;;10367578;28;20466;-48
2022/01/15 16:05:28;;;;;;;9.13;5.38;;;;;;;;;;10364068;28;20030;-51
2022/01/15 16:10:28;;;;;;;7.85;5.72;;;;;;;;;;10368279;28;20025;-51
2022/01/15 16:15:29;;;;;;;10.25;5.47;;;;;;;;;;10364307;28;20050;-46
2022/01/15 16:20:29;;;;;;;7.65;5.47;;;;;;;;;;10367691;28;20030;-47
2022/01/15 16:25:30;;;;;;;7.85;5.65;;;;;;;;;;10366481;28;20028;-49
2022/01/15 16:30:30;;;;;;;9.77;5.70;;;;;;;;;;10367028;28;20479;-45
2022/01/15 16:35:30;;;;;;;10.65;5.70;;;;;;;;;;10368494;28;20076;-50
2022/01/15 16:40:31;;;;;;;8.68;5.75;;;;;;;;;;10375723;28;20057;-46
2022/01/15 16:45:31;;;;;;;9.82;6.50;;;;;;;;;;10375016;28;20107;-51
2022/01/15 16:50:32;;;;;;;7.93;5.53;;;;;;;;;;10374775;28;20113;-50
2022/01/15 16:55:33;;;;;;;8.60;5.78;;;;;;;;;;10374130;28;20486;-50
2022/01/15 17:00:33;;;;;;;18.40;6.13;;;;;;;;;;10374165;28;20032;-57
2022/01/15 17:05:34;;;;;;;8.52;5.40;;;;;;;;;;10374346;28;20060;-50
2022/01/15 17:10:34;;;;;;;11.50;5.97;;;;;;;;;;10374420;28;20072;-47
2022/01/15 17:15:35;;;;;;;12.55;6.15;;;;;;;;;;10367345;28;20045;-45
2022/01/15 17:20:35;;;;;;;18.67;6.18;;;;;;;;;;10373705;28;20018;-48
2022/01/15 17:25:36;;;;;;;14.87;6.00;;;;;;;;;;10373760;28;20022;-49
2022/01/15 17:30:37;;;;;;;10.77;6.50;;;;;;;;;;10372853;28;20562;-53
2022/01/15 17:35:37;;;;;;;12.40;6.00;;;;;;;;;;10372433;28;20296;-49
2022/01/15 17:40:37;;;;;;;11.37;6.77;;;;;;;;;;10372716;28;20054;-50
2022/01/15 17:45:40;;;;;;;20.80;6.53;;;;;;;;;;10371790;28;20443;-52
2022/01/15 17:50:40;;;;;;;18.55;5.75;;;;;;;;;;10348415;28;20481;-51
2022/01/15 17:55:41;;;;;;;9.40;5.73;;;;;;;;;;10336536;28;20084;-50
2022/01/15 18:00:41;;;;;;;22.80;6.28;;;;;;;;;;10334797;28;20618;-46
2022/01/15 18:05:41;;;;;;;14.30;5.87;;;;;;;;;;10334963;28;20480;-47
2022/01/15 18:10:42;;;;;;;13.27;5.80;;;;;;;;;;10335469;28;20472;-49
2022/01/15 18:15:42;;;;;;;8.90;5.60;;;;;;;;;;10332831;28;20766;-56
2022/01/15 18:20:43;;;;;;;10.27;5.63;;;;;;;;;;10332207;28;20212;-59
2022/01/15 18:25:44;;;;;;;10.25;6.28;;;;;;;;;;10334941;28;20025;-54
2022/01/15 18:30:46;;;;;;;8.55;5.50;;;;;;;;;;10335395;28;20034;-59
2022/01/15 18:35:46;;;;;;;10.77;5.55;;;;;;;;;;10334919;28;20026;-54
2022/01/15 18:40:46;;;;;;;13.47;5.90;;;;;;;;;;10335024;28;20104;-59
2022/01/15 18:45:48;;;;;;;9.13;5.70;;;;;;;;;;10335016;28;20026;-57
2022/01/15 18:50:48;;;;;;;8.75;5.32;;;;;;;;;;10334706;28;20120;-51
2022/01/15 18:55:49;;;;;;;8.60;5.50;;;;;;;;;;10334490;28;20048;-51
2022/01/15 19:00:49;;;;;;;8.15;5.15;;;;;;;;;;10332195;28;20964;-54
2022/01/15 19:05:49;;;;;;;17.70;5.78;;;;;;;;;;10347714;28;20070;-48
2022/01/15 19:10:50;;;;;;;8.93;5.68;;;;;;;;;;10367372;28;20032;-51
2022/01/15 19:15:51;;;;;;;15.13;7.10;;;;;;;;;;10369425;28;20164;-52
2022/01/15 19:20:51;;;;;;;18.92;8.85;;;;;;;;;;10366862;28;20230;-52
2022/01/15 19:25:51;;;;;;;23.42;11.27;;;;;;;;;;10369922;28;20472;-53
2022/01/15 19:30:52;;;;;;;25.07;11.80;;;;;;;;;;10365738;28;20034;-60
2022/01/15 19:35:52;;;;;;;31.63;10.93;;;;;;;;;;10368246;28;20466;-58
2022/01/15 19:40:53;;;;;;;30.50;12.88;;;;;;;;;;10368388;28;20026;-57
2022/01/15 19:45:53;;;;;;;22.70;12.27;;;;;;;;;;10368797;28;20036;-58
2022/01/15 19:50:54;;;;;;;19.75;11.80;;;;;;;;;;10368975;28;20480;-62
2022/01/15 19:55:54;;;;;;;29.30;13.13;;;;;;;;;;10367596;28;20474;-64
2022/01/15 20:00:55;;;;;;;28.42;13.27;;;;;;;;;;10367848;28;20116;-59
2022/01/15 20:05:55;;;;;;;32.53;12.97;;;;;;;;;;10362174;28;20033;-55
2022/01/15 20:10:55;;;;;;;24.47;13.53;;;;;;;;;;10332896;28;20483;-53
2022/01/15 20:15:56;;;;;;;19.85;11.18;;;;;;;;;;10333247;28;20456;-52
2022/01/15 20:20:58;;;;;;;22.03;11.67;;;;;;;;;;10333225;28;20431;-53
2022/01/15 20:25:58;;;;;;;25.80;12.27;;;;;;;;;;10333120;28;20030;-44
2022/01/15 20:30:59;;;;;;;25.20;12.20;;;;;;;;;;10334601;28;20040;-56
2022/01/15 20:35:59;;;;;;;22.73;11.65;;;;;;;;;;10332932;28;20605;-50
2022/01/15 20:41:00;;;;;;;21.73;12.52;;;;;;;;;;10335073;28;20313;-55
2022/01/15 20:46:01;;;;;;;20.42;11.43;;;;;;;;;;10331737;28;20030;-58
2022/01/15 20:51:01;;;;;;;25.75;11.82;;;;;;;;;;10331718;28;20632;-58
2022/01/15 20:56:01;;;;;;;22.83;11.45;;;;;;;;;;10331864;28;20054;-54
2022/01/15 21:01:02;;;;;;;21.67;10.70;;;;;;;;;;10332675;28;20026;-53
2022/01/15 21:06:03;;;;;;;24.00;11.52;;;;;;;;;;10332739;28;20201;-60
2022/01/15 21:11:05;;;;;;;19.30;10.90;;;;;;;;;;10332114;28;20610;-60
2022/01/15 21:16:05;;;;;;;18.40;10.00;;;;;;;;;;10331539;28;20112;-55
2022/01/15 21:21:06;;;;;;;18.67;10.30;;;;;;;;;;10331880;28;20026;-57
2022/01/15 21:26:08;;;;;;;18.52;10.10;;;;;;;;;;10340005;28;21174;-55
2022/01/15 21:31:09;;;;;;;21.35;10.40;;;;;;;;;;10337806;28;20547;-55
2022/01/15 21:36:10;;;;;;;24.92;10.68;;;;;;;;;;10352788;28;20048;-56
2022/01/15 21:41:11;;;;;;;33.97;12.93;;;;;;;;;;10370683;28;20048;-62
2022/01/15 21:46:15;;;;;;;40.45;14.88;;;;;;;;;;10372160;28;20030;-49
2022/01/15 21:51:15;;;;;;;39.75;14.20;;;;;;;;;;10372981;28;20559;-61
2022/01/15 21:56:16;;;;;;;36.23;14.57;;;;;;;;;;10373566;28;20103;-49
2022/01/15 22:01:16;;;;;;;34.55;14.35;;;;;;;;;;10372852;28;20978;-52
2022/01/15 22:06:17;;;;;;;31.40;14.60;;;;;;;;;;10373634;28;20029;-52
2022/01/15 22:11:17;;;;;;;36.53;14.38;;;;;;;;;;10372926;28;20025;-49
2022/01/15 22:16:19;;;;;;;30.77;15.63;;;;;;;;;;10372363;28;20494;-48
2022/01/15 22:21:20;;;;;;;25.58;14.07;;;;;;;;;;10372389;28;20527;-48
2022/01/15 22:26:20;;;;;;;31.85;15.95;;;;;;;;;;10372457;28;20084;-56
2022/01/15 22:31:21;;;;;;;31.02;15.63;;;;;;;;;;10370908;28;20037;-48
2022/01/15 22:36:22;;;;;;;29.70;14.80;;;;;;;;;;10364864;28;20056;-59
2022/01/15 22:41:23;;;;;;;24.25;13.80;;;;;;;;;;10370898;28;20489;-49
2022/01/15 22:46:24;;;;;;;32.38;13.57;;;;;;;;;;10371443;28;20022;-58
2022/01/15 22:51:24;;;;;;;26.25;12.23;;;;;;;;;;10371213;28;20032;-46
2022/01/15 22:56:25;;;;;;;29.40;14.23;;;;;;;;;;10370750;28;20088;-57
2022/01/15 23:01:25;;;;;;;22.40;13.10;;;;;;;;;;10370863;28;20033;-49
2022/01/15 23:06:26;;;;;;;27.30;13.70;;;;;;;;;;10370085;28;20442;-48
2022/01/15 23:11:28;;;;;;;29.77;12.90;;;;;;;;;;10370761;28;20045;-50
2022/01/15 23:21:33;;;;;;;26.88;12.93;;;;;;;;;;10369892;28;20026;-46
2022/01/15 23:26:36;;;;;;;26.52;13.38;;;;;;;;;;10369761;28;20025;-64
2022/01/15 23:31:36;;;;;;;27.90;13.63;;;;;;;;;;10368933;28;20034;-57
2022/01/15 23:36:37;;;;;;;23.10;13.05;;;;;;;;;;10365176;28;20388;-61
2022/01/15 23:41:37;;;;;;;26.60;13.17;;;;;;;;;;10367928;28;20106;-62
2022/01/15 23:46:56;;;;;;;21.13;12.18;;;;;;;;;;10365628;28;20455;-62
2022/01/15 23:51:56;;;;;;;27.33;12.80;;;;;;;;;;10367963;28;20025;-64
2022/01/15 23:56:56;;;;;;;27.80;12.40;;;;;;;;;;10368557;28;20030;-63
